Time;durP1;ratioP1;P1;durP2;ratioP2;P2;SDS_P1;SDS_P2;PMS_P1;PMS_P2;Temp;Humidity;BMP_temperature;BMP_pressure;BME280_temperature;BME280_humidity;BME280_pressure;Samples;Min_cycle;Max_cycle;Signal;HPM_P1;HPM_P2
2023/06/02 00:01:02;;;;;;;15.75;14.25;;;;;;;;;;5060438;28;20253;-66
2023/06/02 00:03:32;;;;;;;15.10;13.55;;;;;;;;;;5064479;28;20238;-67
2023/06/02 00:06:00;;;;;;;15.98;14.27;;;;;;;;;;5053175;28;20207;-66
2023/06/02 00:08:28;;;;;;;14.60;13.10;;;;;;;;;;5052953;28;20208;-67
2023/06/02 00:10:56;;;;;;;15.93;14.23;;;;;;;;;;5051291;28;20235;-66
2023/06/02 00:13:23;;;;;;;16.60;13.90;;;;;;;;;;5057181;28;20230;-67
2023/06/02 00:15:51;;;;;;;16.20;14.23;;;;;;;;;;5053855;28;20235;-66
2023/06/02 00:18:20;;;;;;;14.30;12.90;;;;;;;;;;5054074;28;20315;-66
2023/06/02 00:20:47;;;;;;;15.73;13.95;;;;;;;;;;5058950;28;20298;-66
2023/06/02 00:23:15;;;;;;;14.95;13.52;;;;;;;;;;5059259;28;20210;-66
2023/06/02 00:25:43;;;;;;;16.55;14.48;;;;;;;;;;5055562;28;20284;-66
2023/06/02 00:28:11;;;;;;;16.40;14.80;;;;;;;;;;5056078;28;20231;-67
2023/06/02 00:30:38;;;;;;;15.93;14.23;;;;;;;;;;5062396;28;20227;-67
2023/06/02 00:33:05;;;;;;;16.02;14.05;;;;;;;;;;5055539;28;20257;-67
2023/06/02 00:35:33;;;;;;;15.43;13.85;;;;;;;;;;5051858;28;20235;-67
2023/06/02 00:38:04;;;;;;;14.68;13.27;;;;;;;;;;5056381;28;20245;-67
2023/06/02 00:40:31;;;;;;;16.25;14.55;;;;;;;;;;5057651;28;20203;-67
2023/06/02 00:43:01;;;;;;;16.33;14.63;;;;;;;;;;5052351;28;20211;-67
2023/06/02 00:45:28;;;;;;;16.80;15.00;;;;;;;;;;5050559;28;20214;-68
2023/06/02 00:47:55;;;;;;;18.48;16.58;;;;;;;;;;5052135;28;20214;-67
2023/06/02 00:50:25;;;;;;;18.38;16.58;;;;;;;;;;5054536;28;20261;-67
2023/06/02 00:52:53;;;;;;;18.88;17.02;;;;;;;;;;5056419;28;20207;-67
2023/06/02 00:55:20;;;;;;;20.63;18.77;;;;;;;;;;5054367;28;20207;-67
2023/06/02 00:57:51;;;;;;;19.30;17.35;;;;;;;;;;5056129;28;20222;-67
2023/06/02 01:00:21;;;;;;;20.25;18.15;;;;;;;;;;5054372;28;20257;-67
2023/06/02 01:02:49;;;;;;;19.95;17.95;;;;;;;;;;5052091;28;20209;-67
2023/06/02 01:05:19;;;;;;;19.48;17.33;;;;;;;;;;5056260;28;20223;-67
2023/06/02 01:07:46;;;;;;;18.95;16.92;;;;;;;;;;5055567;28;20199;-67
2023/06/02 01:10:14;;;;;;;19.85;17.80;;;;;;;;;;5054190;28;20206;-66
2023/06/02 01:12:41;;;;;;;19.02;17.13;;;;;;;;;;5053940;28;20226;-67
2023/06/02 01:15:09;;;;;;;19.15;17.35;;;;;;;;;;5058727;28;20206;-67
2023/06/02 01:17:38;;;;;;;18.00;16.10;;;;;;;;;;5048643;28;20239;-67
2023/06/02 01:20:07;;;;;;;20.25;18.20;;;;;;;;;;5047887;28;20207;-67
2023/06/02 01:22:38;;;;;;;17.20;15.50;;;;;;;;;;5060834;28;20258;-68
2023/06/02 01:25:18;;;;;;;17.35;15.65;;;;;;;;;;5061164;28;20270;-68
2023/06/02 01:27:45;;;;;;;17.50;15.85;;;;;;;;;;5056886;28;20256;-67
2023/06/02 01:30:13;;;;;;;18.95;17.05;;;;;;;;;;5054070;28;20199;-67
2023/06/02 01:32:43;;;;;;;16.55;15.05;;;;;;;;;;5053609;28;20209;-67
2023/06/02 01:35:11;;;;;;;17.23;15.40;;;;;;;;;;5052102;28;20267;-67
2023/06/02 01:37:50;;;;;;;16.10;14.50;;;;;;;;;;5052812;28;20223;-66
2023/06/02 01:40:18;;;;;;;16.75;14.10;;;;;;;;;;5053447;28;20324;-67
2023/06/02 01:42:46;;;;;;;16.13;14.57;;;;;;;;;;5053634;28;20230;-68
2023/06/02 01:45:13;;;;;;;15.30;13.70;;;;;;;;;;5056735;28;20206;-71
2023/06/02 01:47:40;;;;;;;16.02;14.10;;;;;;;;;;5058181;28;20223;-69
2023/06/02 01:50:08;;;;;;;16.08;14.48;;;;;;;;;;5053637;28;20356;-69
2023/06/02 01:52:35;;;;;;;14.15;12.77;;;;;;;;;;5053267;28;20298;-67
2023/06/02 01:55:03;;;;;;;14.75;13.15;;;;;;;;;;5050080;28;20230;-68
2023/06/02 01:57:33;;;;;;;13.20;12.00;;;;;;;;;;5054666;28;20309;-68
2023/06/02 02:00:01;;;;;;;16.83;12.40;;;;;;;;;;5053735;28;20199;-68
2023/06/02 02:02:28;;;;;;;13.00;11.75;;;;;;;;;;5054529;28;20203;-68
2023/06/02 02:04:55;;;;;;;14.32;12.85;;;;;;;;;;5049330;28;20246;-69
2023/06/02 02:07:24;;;;;;;14.18;12.75;;;;;;;;;;5052248;28;20211;-67
2023/06/02 02:09:51;;;;;;;14.95;13.45;;;;;;;;;;5051512;28;20203;-67
2023/06/02 02:12:18;;;;;;;15.57;13.98;;;;;;;;;;5057364;28;20246;-68
2023/06/02 02:14:50;;;;;;;14.20;12.77;;;;;;;;;;5055680;28;20212;-68
2023/06/02 02:17:17;;;;;;;14.23;12.73;;;;;;;;;;5059468;28;20203;-68
2023/06/02 02:19:50;;;;;;;16.17;13.57;;;;;;;;;;5052378;28;20232;-69
2023/06/02 02:22:17;;;;;;;15.23;13.68;;;;;;;;;;5049752;28;20214;-69
2023/06/02 02:24:46;;;;;;;12.95;11.68;;;;;;;;;;5059229;28;20202;-67
2023/06/02 02:27:13;;;;;;;13.18;11.75;;;;;;;;;;5053963;28;20204;-67
2023/06/02 02:29:40;;;;;;;14.45;12.57;;;;;;;;;;5059971;28;20191;-67
2023/06/02 02:32:09;;;;;;;14.63;13.13;;;;;;;;;;5053332;28;20223;-67
2023/06/02 02:34:38;;;;;;;13.98;12.07;;;;;;;;;;5060534;28;20207;-67
2023/06/02 02:37:06;;;;;;;15.18;13.60;;;;;;;;;;5054695;28;20297;-67
2023/06/02 02:39:33;;;;;;;14.25;12.57;;;;;;;;;;5058683;28;20230;-67
2023/06/02 02:42:02;;;;;;;14.27;12.88;;;;;;;;;;5058381;28;20219;-67
2023/06/02 02:44:29;;;;;;;14.73;13.18;;;;;;;;;;5054181;28;20230;-68
2023/06/02 02:46:58;;;;;;;13.70;12.32;;;;;;;;;;5053920;28;20208;-67
2023/06/02 02:49:27;;;;;;;14.40;10.90;;;;;;;;;;5058778;28;20199;-67
2023/06/02 02:51:56;;;;;;;15.38;12.68;;;;;;;;;;5054151;28;20203;-67
2023/06/02 02:54:23;;;;;;;14.35;12.30;;;;;;;;;;5060401;28;20210;-68
2023/06/02 02:56:51;;;;;;;13.65;12.00;;;;;;;;;;5053894;28;20210;-67
2023/06/02 02:59:18;;;;;;;12.95;11.70;;;;;;;;;;5058778;28;20223;-67
2023/06/02 03:01:46;;;;;;;13.23;11.82;;;;;;;;;;5054604;28;20206;-67
2023/06/02 03:04:18;;;;;;;12.23;10.98;;;;;;;;;;5056552;28;20207;-67
2023/06/02 03:06:49;;;;;;;12.77;11.45;;;;;;;;;;5058770;28;20218;-67
2023/06/02 03:09:16;;;;;;;13.05;11.75;;;;;;;;;;5050559;28;20195;-66
2023/06/02 03:11:44;;;;;;;12.93;11.57;;;;;;;;;;5056518;28;20261;-67
2023/06/02 03:14:11;;;;;;;11.55;10.23;;;;;;;;;;5055010;28;20218;-67
2023/06/02 03:16:41;;;;;;;12.93;11.15;;;;;;;;;;5053352;28;20203;-67
2023/06/02 03:19:08;;;;;;;14.15;11.13;;;;;;;;;;5057772;28;20231;-67
2023/06/02 03:21:41;;;;;;;13.07;10.60;;;;;;;;;;5055149;28;20287;-70
2023/06/02 03:24:10;;;;;;;11.80;10.50;;;;;;;;;;5051398;28;20203;-70
2023/06/02 03:26:40;;;;;;;13.15;11.20;;;;;;;;;;5055672;28;20195;-70
2023/06/02 03:29:07;;;;;;;13.00;10.75;;;;;;;;;;5054549;28;20199;-69
2023/06/02 03:31:35;;;;;;;14.93;12.20;;;;;;;;;;5055765;28;20211;-69
2023/06/02 03:34:02;;;;;;;11.98;10.15;;;;;;;;;;5059654;28;20203;-69
2023/06/02 03:36:29;;;;;;;12.18;9.88;;;;;;;;;;5061482;28;20207;-68
2023/06/02 03:38:57;;;;;;;12.25;11.07;;;;;;;;;;5057851;28;20220;-68
2023/06/02 03:41:26;;;;;;;11.77;10.65;;;;;;;;;;5054866;28;20207;-69
2023/06/02 03:43:53;;;;;;;12.90;11.57;;;;;;;;;;5050224;28;20200;-69
2023/06/02 03:46:20;;;;;;;13.68;12.32;;;;;;;;;;5056014;28;20218;-70
2023/06/02 03:48:47;;;;;;;13.45;12.15;;;;;;;;;;5052771;28;20200;-69
2023/06/02 03:51:14;;;;;;;12.60;11.18;;;;;;;;;;5053737;28;20210;-71
2023/06/02 03:53:42;;;;;;;14.27;12.88;;;;;;;;;;5055885;28;20219;-68
2023/06/02 03:56:09;;;;;;;13.70;11.65;;;;;;;;;;5056616;28;20207;-70
2023/06/02 03:58:37;;;;;;;15.30;13.05;;;;;;;;;;5054341;28;20246;-71
2023/06/02 04:01:05;;;;;;;13.77;12.32;;;;;;;;;;5054732;28;20207;-70
2023/06/02 04:03:36;;;;;;;15.27;12.40;;;;;;;;;;5054917;28;20203;-69
2023/06/02 04:06:03;;;;;;;13.15;11.90;;;;;;;;;;5058196;28;20229;-70
2023/06/02 04:08:30;;;;;;;14.07;12.30;;;;;;;;;;5059849;28;20206;-70
2023/06/02 04:10:58;;;;;;;13.65;12.35;;;;;;;;;;5058425;28;20199;-71
2023/06/02 04:13:25;;;;;;;13.95;12.55;;;;;;;;;;5062886;28;20207;-68
2023/06/02 04:15:53;;;;;;;12.75;11.57;;;;;;;;;;5050932;28;20211;-67
2023/06/02 04:18:20;;;;;;;13.82;12.43;;;;;;;;;;5050991;28;20222;-69
2023/06/02 04:20:48;;;;;;;16.23;13.82;;;;;;;;;;5049720;28;20219;-68
2023/06/02 04:23:15;;;;;;;14.63;13.13;;;;;;;;;;5051525;28;20199;-68
2023/06/02 04:25:42;;;;;;;15.10;13.60;;;;;;;;;;5052925;28;20257;-67
2023/06/02 04:28:10;;;;;;;15.30;13.70;;;;;;;;;;5053335;28;20204;-67
2023/06/02 04:30:39;;;;;;;15.77;13.55;;;;;;;;;;5056167;28;20290;-71
2023/06/02 04:33:08;;;;;;;15.05;13.52;;;;;;;;;;5052871;28;20208;-70
2023/06/02 04:35:35;;;;;;;15.60;13.77;;;;;;;;;;5053515;28;20200;-71
2023/06/02 04:38:03;;;;;;;15.68;14.07;;;;;;;;;;5047815;28;20215;-71
2023/06/02 04:40:30;;;;;;;14.52;13.02;;;;;;;;;;5057790;28;20195;-72
2023/06/02 04:42:58;;;;;;;15.15;13.68;;;;;;;;;;5052896;28;20208;-71
2023/06/02 04:45:26;;;;;;;15.63;14.07;;;;;;;;;;5053041;28;20199;-72
2023/06/02 04:50:40;;;;;;;15.85;14.13;;;;;;;;;;5048066;28;20211;-73
2023/06/02 04:53:07;;;;;;;16.98;14.40;;;;;;;;;;5049801;28;20212;-72
2023/06/02 04:55:34;;;;;;;14.90;13.43;;;;;;;;;;5056155;28;20203;-72
2023/06/02 04:58:01;;;;;;;14.32;12.95;;;;;;;;;;5057025;28;20246;-72
2023/06/02 05:00:29;;;;;;;15.82;14.15;;;;;;;;;;5048727;28;20223;-74
2023/06/02 05:02:56;;;;;;;14.30;12.85;;;;;;;;;;5058147;28;20241;-73
2023/06/02 05:05:23;;;;;;;16.60;12.93;;;;;;;;;;5052474;28;20203;-73
2023/06/02 05:07:52;;;;;;;16.38;14.57;;;;;;;;;;5053263;28;20195;-73
2023/06/02 05:10:19;;;;;;;16.52;12.73;;;;;;;;;;5055341;28;20199;-73
2023/06/02 05:12:47;;;;;;;16.50;14.45;;;;;;;;;;5058818;28;20261;-73
2023/06/02 05:15:14;;;;;;;15.25;13.63;;;;;;;;;;5052217;28;20200;-73
2023/06/02 05:17:43;;;;;;;14.00;12.18;;;;;;;;;;5052296;28;20218;-73
2023/06/02 05:20:11;;;;;;;14.23;12.70;;;;;;;;;;5052108;28;20238;-74
2023/06/02 05:22:38;;;;;;;12.98;11.43;;;;;;;;;;5049236;28;20286;-73
2023/06/02 05:25:07;;;;;;;14.10;11.68;;;;;;;;;;5054853;28;20203;-74
2023/06/02 05:27:34;;;;;;;13.65;12.23;;;;;;;;;;5053831;28;20202;-72
2023/06/02 05:30:02;;;;;;;13.68;11.38;;;;;;;;;;5056650;28;20210;-71
2023/06/02 05:32:29;;;;;;;13.05;11.20;;;;;;;;;;5054156;28;20199;-72
2023/06/02 05:34:56;;;;;;;12.20;10.85;;;;;;;;;;5050184;28;20207;-73
2023/06/02 05:37:23;;;;;;;11.80;10.70;;;;;;;;;;5053066;28;20203;-73
2023/06/02 05:39:52;;;;;;;11.50;10.40;;;;;;;;;;5055403;28;20219;-74
2023/06/02 05:42:21;;;;;;;12.20;10.95;;;;;;;;;;5051282;28;20202;-73
2023/06/02 05:44:48;;;;;;;11.98;10.80;;;;;;;;;;5050518;28;20214;-72
2023/06/02 05:47:15;;;;;;;12.48;11.18;;;;;;;;;;5056667;28;20207;-73
2023/06/02 05:49:42;;;;;;;11.23;10.15;;;;;;;;;;5051121;28;20197;-72
2023/06/02 05:52:10;;;;;;;11.57;10.40;;;;;;;;;;5052437;28;20215;-72
2023/06/02 05:54:37;;;;;;;12.38;10.50;;;;;;;;;;5058910;28;20195;-72
2023/06/02 05:57:04;;;;;;;11.93;10.73;;;;;;;;;;5054143;28;20207;-72
2023/06/02 05:59:32;;;;;;;12.40;10.50;;;;;;;;;;5051602;28;20242;-72
2023/06/02 06:02:00;;;;;;;12.40;10.25;;;;;;;;;;5055129;28;20206;-73
2023/06/02 06:04:27;;;;;;;13.82;11.65;;;;;;;;;;5053471;28;20231;-72
2023/06/02 06:06:54;;;;;;;13.13;11.05;;;;;;;;;;5047941;28;20204;-73
2023/06/02 06:09:21;;;;;;;13.10;11.02;;;;;;;;;;5051543;28;20207;-73
2023/06/02 06:11:48;;;;;;;10.90;9.70;;;;;;;;;;5051807;28;20238;-72
2023/06/02 06:14:17;;;;;;;12.35;11.10;;;;;;;;;;5051191;28;20275;-72
2023/06/02 06:16:45;;;;;;;11.88;10.60;;;;;;;;;;5053898;28;20215;-72
2023/06/02 06:19:13;;;;;;;10.95;9.80;;;;;;;;;;5051464;28;20222;-72
2023/06/02 06:21:40;;;;;;;14.32;11.70;;;;;;;;;;5051654;28;20294;-72
2023/06/02 06:24:07;;;;;;;13.10;11.80;;;;;;;;;;5058422;28;20202;-73
2023/06/02 06:26:35;;;;;;;12.63;11.27;;;;;;;;;;5050611;28;20199;-73
2023/06/02 06:29:03;;;;;;;12.35;11.07;;;;;;;;;;5052627;28;20229;-72
2023/06/02 06:31:32;;;;;;;14.35;11.02;;;;;;;;;;5051435;28;20229;-72
2023/06/02 06:34:00;;;;;;;13.48;11.90;;;;;;;;;;5055910;28;20210;-73
2023/06/02 06:36:28;;;;;;;12.93;11.40;;;;;;;;;;5050304;28;20232;-73
2023/06/02 06:38:55;;;;;;;15.45;12.95;;;;;;;;;;5047430;28;20195;-72
2023/06/02 06:41:22;;;;;;;15.13;13.07;;;;;;;;;;5053773;28;20209;-73
2023/06/02 06:43:49;;;;;;;15.48;12.43;;;;;;;;;;5051961;28;20204;-73
2023/06/02 06:46:17;;;;;;;14.07;11.52;;;;;;;;;;5049986;28;20257;-73
2023/06/02 06:48:44;;;;;;;12.70;10.85;;;;;;;;;;5054406;28;20215;-73
2023/06/02 06:51:12;;;;;;;15.93;12.50;;;;;;;;;;5051294;28;20203;-73
2023/06/02 06:53:40;;;;;;;14.13;11.93;;;;;;;;;;5053777;28;20210;-75
2023/06/02 06:56:07;;;;;;;13.80;10.80;;;;;;;;;;5051306;28;20215;-74
2023/06/02 06:58:34;;;;;;;13.50;11.25;;;;;;;;;;5047766;28;20211;-73
2023/06/02 07:01:02;;;;;;;14.43;12.93;;;;;;;;;;5051706;28;20285;-74
2023/06/02 07:03:29;;;;;;;14.68;13.02;;;;;;;;;;5048942;28;20207;-73
2023/06/02 07:05:56;;;;;;;15.23;12.57;;;;;;;;;;5056247;28;20235;-74
2023/06/02 07:08:25;;;;;;;14.65;12.85;;;;;;;;;;5057095;28;20270;-74
2023/06/02 07:10:52;;;;;;;15.48;13.25;;;;;;;;;;5050925;28;20198;-71
2023/06/02 07:13:19;;;;;;;14.48;12.98;;;;;;;;;;5053120;28;20203;-71
2023/06/02 07:15:46;;;;;;;18.08;13.60;;;;;;;;;;5049600;28;20216;-71
2023/06/02 07:18:13;;;;;;;16.20;14.50;;;;;;;;;;5058727;28;20206;-73
2023/06/02 07:20:41;;;;;;;18.05;15.27;;;;;;;;;;5046721;28;20215;-75
2023/06/02 07:23:09;;;;;;;20.13;15.23;;;;;;;;;;5053978;28;20196;-74
2023/06/02 07:25:37;;;;;;;17.73;15.73;;;;;;;;;;5053958;28;20203;-74
2023/06/02 07:28:04;;;;;;;20.23;16.10;;;;;;;;;;5052302;28;20210;-73
2023/06/02 07:30:32;;;;;;;17.20;15.40;;;;;;;;;;5058022;28;20218;-74
2023/06/02 07:32:59;;;;;;;19.00;16.25;;;;;;;;;;5056570;28;20203;-73
2023/06/02 07:35:26;;;;;;;18.33;15.32;;;;;;;;;;5055028;28;20207;-73
2023/06/02 07:37:54;;;;;;;17.98;15.95;;;;;;;;;;5061578;28;20206;-73
2023/06/02 07:40:21;;;;;;;17.75;15.30;;;;;;;;;;5056736;28;20234;-73
2023/06/02 07:42:50;;;;;;;18.33;15.25;;;;;;;;;;5059754;28;20211;-73
2023/06/02 07:45:17;;;;;;;17.42;15.27;;;;;;;;;;5055486;28;20210;-74
2023/06/02 07:47:45;;;;;;;17.20;15.40;;;;;;;;;;5054949;28;20218;-75
2023/06/02 07:50:12;;;;;;;17.60;15.73;;;;;;;;;;5055837;28;20200;-74
2023/06/02 07:52:39;;;;;;;18.17;15.27;;;;;;;;;;5055923;28;20199;-75
2023/06/02 07:55:06;;;;;;;19.65;16.02;;;;;;;;;;5056147;28;20215;-73
2023/06/02 07:57:34;;;;;;;18.40;15.23;;;;;;;;;;5058236;28;20218;-76
2023/06/02 08:00:11;;;;;;;15.73;14.13;;;;;;;;;;5055009;28;20223;-74
2023/06/02 08:02:40;;;;;;;16.02;14.32;;;;;;;;;;5059153;28;20211;-74
2023/06/02 08:05:07;;;;;;;16.30;14.60;;;;;;;;;;5052476;28;20249;-74
2023/06/02 08:07:34;;;;;;;15.93;14.32;;;;;;;;;;5052069;28;20483;-75
2023/06/02 08:10:01;;;;;;;14.68;13.20;;;;;;;;;;5054699;28;20200;-75
2023/06/02 08:12:29;;;;;;;15.13;13.63;;;;;;;;;;5058861;28;20233;-76
2023/06/02 08:14:56;;;;;;;15.15;13.45;;;;;;;;;;5058763;28;20309;-75
2023/06/02 08:17:29;;;;;;;15.15;13.65;;;;;;;;;;5063024;28;20213;-75
2023/06/02 08:19:56;;;;;;;15.85;13.55;;;;;;;;;;5059200;28;20246;-74
2023/06/02 08:22:25;;;;;;;16.75;13.98;;;;;;;;;;5052277;28;20210;-76
2023/06/02 08:24:53;;;;;;;13.73;12.32;;;;;;;;;;5054063;28;20198;-75
2023/06/02 08:27:21;;;;;;;12.68;11.45;;;;;;;;;;5058251;28;20299;-76
2023/06/02 08:29:49;;;;;;;13.95;12.55;;;;;;;;;;5056237;28;20261;-77
2023/06/02 08:32:17;;;;;;;13.70;12.32;;;;;;;;;;5053882;28;20311;-76
2023/06/02 08:34:47;;;;;;;13.70;12.18;;;;;;;;;;5058928;28;20211;-76
2023/06/02 08:37:16;;;;;;;12.30;11.15;;;;;;;;;;5057277;28;20256;-75
2023/06/02 08:39:43;;;;;;;11.50;10.15;;;;;;;;;;5055679;28;20203;-75
2023/06/02 08:42:11;;;;;;;12.63;11.32;;;;;;;;;;5053048;28;20200;-75
2023/06/02 08:44:39;;;;;;;12.93;11.07;;;;;;;;;;5056535;28;20203;-76
2023/06/02 08:47:08;;;;;;;10.82;9.70;;;;;;;;;;5058715;28;20207;-77
2023/06/02 08:49:36;;;;;;;11.15;9.52;;;;;;;;;;5056946;28;20214;-76
2023/06/02 08:52:06;;;;;;;12.85;9.27;;;;;;;;;;5055629;28;20207;-75
2023/06/02 08:54:34;;;;;;;10.95;9.95;;;;;;;;;;5054219;28;20257;-75
2023/06/02 08:57:04;;;;;;;10.35;9.32;;;;;;;;;;5056118;28;20202;-76
2023/06/02 08:59:31;;;;;;;9.75;8.80;;;;;;;;;;5055976;28;20203;-76
2023/06/02 09:02:01;;;;;;;11.05;10.13;;;;;;;;;;5055321;28;20210;-76
2023/06/02 09:04:28;;;;;;;10.63;9.52;;;;;;;;;;5048347;28;20199;-76
2023/06/02 09:07:15;;;;;;;17.88;9.38;;;;;;;;;;5054554;28;20203;-75
2023/06/02 09:09:44;;;;;;;9.50;8.50;;;;;;;;;;5052868;28;20211;-70
2023/06/02 09:12:12;;;;;;;7.82;7.05;;;;;;;;;;5050125;28;20242;-72
2023/06/02 09:14:39;;;;;;;9.60;8.13;;;;;;;;;;5049192;28;20239;-73
2023/06/02 09:17:24;;;;;;;8.68;7.55;;;;;;;;;;5062017;28;20226;-73
2023/06/02 09:19:51;;;;;;;9.57;7.53;;;;;;;;;;5051977;28;20203;-74
2023/06/02 09:22:19;;;;;;;8.73;7.85;;;;;;;;;;5058606;28;20207;-73
2023/06/02 09:24:47;;;;;;;6.53;5.95;;;;;;;;;;5055120;28;20195;-73
2023/06/02 09:27:15;;;;;;;7.13;6.40;;;;;;;;;;5050704;28;20202;-72
2023/06/02 09:29:42;;;;;;;9.00;7.63;;;;;;;;;;5058155;28;20219;-73
2023/06/02 09:32:12;;;;;;;7.90;7.05;;;;;;;;;;5057365;28;20286;-74
2023/06/02 09:34:39;;;;;;;10.05;6.07;;;;;;;;;;5054119;28;20199;-71
2023/06/02 09:37:10;;;;;;;6.18;5.53;;;;;;;;;;5051793;28;20209;-72
2023/06/02 09:39:41;;;;;;;5.72;5.03;;;;;;;;;;5054592;28;20296;-70
2023/06/02 09:42:11;;;;;;;6.60;5.90;;;;;;;;;;5055980;28;20236;-74
2023/06/02 09:44:39;;;;;;;6.40;5.68;;;;;;;;;;5056530;28;20195;-74
2023/06/02 09:47:20;;;;;;;5.57;5.18;;;;;;;;;;5058292;28;20196;-75
2023/06/02 09:49:47;;;;;;;5.28;4.78;;;;;;;;;;5055137;28;20199;-72
2023/06/02 09:52:15;;;;;;;5.78;4.28;;;;;;;;;;5055308;28;20203;-71
2023/06/02 09:54:43;;;;;;;6.28;5.00;;;;;;;;;;5055972;28;20210;-72
2023/06/02 09:57:12;;;;;;;5.55;4.95;;;;;;;;;;5054330;28;20208;-71
2023/06/02 09:59:40;;;;;;;5.93;4.25;;;;;;;;;;5052681;28;20208;-71
2023/06/02 10:02:07;;;;;;;4.72;4.32;;;;;;;;;;5053872;28;20218;-72
2023/06/02 10:04:34;;;;;;;5.70;4.32;;;;;;;;;;5054910;28;20204;-71
2023/06/02 10:07:07;;;;;;;5.50;4.15;;;;;;;;;;5052080;28;20214;-74
2023/06/02 10:09:41;;;;;;;7.03;4.45;;;;;;;;;;5050542;28;20207;-73
2023/06/02 10:12:17;;;;;;;5.53;4.57;;;;;;;;;;5057663;28;20230;-74
2023/06/02 10:15:03;;;;;;;5.30;3.67;;;;;;;;;;5047725;28;20218;-73
2023/06/02 10:17:37;;;;;;;7.07;4.18;;;;;;;;;;5032531;28;20213;-73
2023/06/02 10:20:14;;;;;;;6.38;3.80;;;;;;;;;;5055992;28;20219;-73
2023/06/02 10:22:49;;;;;;;4.03;3.42;;;;;;;;;;5045816;28;20199;-73
2023/06/02 10:25:20;;;;;;;4.55;3.92;;;;;;;;;;5045779;28;20199;-72
2023/06/02 10:27:49;;;;;;;4.05;3.65;;;;;;;;;;5049771;28;20195;-72
2023/06/02 10:30:20;;;;;;;4.13;3.50;;;;;;;;;;5053362;28;20203;-73
2023/06/02 10:32:48;;;;;;;7.32;4.43;;;;;;;;;;5056279;28;20253;-73
2023/06/02 10:35:16;;;;;;;5.45;3.38;;;;;;;;;;5051615;28;20196;-73
2023/06/02 10:37:43;;;;;;;4.75;3.65;;;;;;;;;;5052042;28;20199;-73
2023/06/02 10:40:11;;;;;;;5.72;3.33;;;;;;;;;;5053475;28;20234;-73
2023/06/02 10:42:38;;;;;;;3.45;3.00;;;;;;;;;;5050773;28;20203;-72
2023/06/02 10:45:24;;;;;;;7.10;3.53;;;;;;;;;;5049187;28;20203;-71
2023/06/02 10:47:53;;;;;;;7.05;4.00;;;;;;;;;;5049607;28;20257;-73
2023/06/02 10:50:22;;;;;;;3.75;2.90;;;;;;;;;;5049651;28;20222;-73
2023/06/02 10:53:09;;;;;;;6.00;2.92;;;;;;;;;;5051859;28;20204;-74
2023/06/02 10:55:37;;;;;;;4.97;3.35;;;;;;;;;;5053272;28;20229;-72
2023/06/02 10:58:05;;;;;;;4.55;3.58;;;;;;;;;;5054173;28;20214;-71
2023/06/02 11:00:44;;;;;;;7.00;3.17;;;;;;;;;;5058781;28;20265;-74
2023/06/02 11:03:29;;;;;;;6.65;3.40;;;;;;;;;;5053281;28;20204;-74
2023/06/02 11:06:11;;;;;;;5.38;3.63;;;;;;;;;;5062888;28;20211;-74
2023/06/02 11:08:39;;;;;;;5.07;3.75;;;;;;;;;;5062488;28;20202;-73
2023/06/02 11:11:06;;;;;;;5.68;3.60;;;;;;;;;;5057170;28;20242;-75
2023/06/02 11:13:54;;;;;;;2.85;2.60;;;;;;;;;;5057205;28;20285;-71
2023/06/02 11:16:21;;;;;;;4.22;3.38;;;;;;;;;;5057920;28;20207;-73
2023/06/02 11:18:49;;;;;;;5.65;3.42;;;;;;;;;;5052759;28;20203;-74
2023/06/02 11:21:18;;;;;;;4.40;3.20;;;;;;;;;;5053854;28;20223;-73
2023/06/02 11:23:45;;;;;;;6.38;3.40;;;;;;;;;;5056589;28;20207;-73
2023/06/02 11:26:12;;;;;;;4.93;3.22;;;;;;;;;;5060602;28;20203;-73
2023/06/02 11:28:40;;;;;;;5.70;3.10;;;;;;;;;;5055856;28;20203;-73
2023/06/02 11:31:08;;;;;;;5.13;3.30;;;;;;;;;;5060486;28;20293;-73
2023/06/02 11:33:36;;;;;;;8.30;3.40;;;;;;;;;;5055452;28;20207;-72
2023/06/02 11:36:06;;;;;;;5.97;3.13;;;;;;;;;;5054392;28;20214;-73
2023/06/02 11:38:34;;;;;;;4.63;3.35;;;;;;;;;;5054727;28;20207;-73
2023/06/02 11:41:09;;;;;;;5.88;3.53;;;;;;;;;;5057691;28;20230;-73
2023/06/02 11:43:37;;;;;;;4.75;3.50;;;;;;;;;;5056224;28;20256;-73
2023/06/02 11:46:08;;;;;;;3.70;2.63;;;;;;;;;;5055068;28;20252;-73
2023/06/02 11:48:38;;;;;;;4.85;2.70;;;;;;;;;;5058915;28;20214;-72
2023/06/02 11:51:06;;;;;;;4.82;3.55;;;;;;;;;;5060552;28;20223;-73
2023/06/02 11:53:34;;;;;;;4.78;3.10;;;;;;;;;;5059784;28;20210;-73
2023/06/02 11:56:01;;;;;;;3.83;3.03;;;;;;;;;;5059999;28;20288;-73
2023/06/02 11:58:29;;;;;;;5.28;3.10;;;;;;;;;;5053932;28;20298;-74
2023/06/02 12:01:06;;;;;;;7.25;3.40;;;;;;;;;;5055142;28;20218;-75
2023/06/02 12:03:34;;;;;;;4.78;3.03;;;;;;;;;;5054269;28;20200;-73
2023/06/02 12:06:10;;;;;;;5.70;3.30;;;;;;;;;;5054414;28;20218;-72
2023/06/02 12:08:37;;;;;;;4.82;3.05;;;;;;;;;;5054015;28;20199;-73
2023/06/02 12:11:04;;;;;;;3.00;2.58;;;;;;;;;;5055145;28;20231;-72
2023/06/02 12:13:32;;;;;;;3.85;3.00;;;;;;;;;;5055038;28;20207;-73
2023/06/02 12:16:19;;;;;;;5.05;3.58;;;;;;;;;;5053465;28;20257;-73
2023/06/02 12:18:46;;;;;;;4.40;3.00;;;;;;;;;;5049618;28;20257;-74
2023/06/02 12:21:23;;;;;;;4.00;3.00;;;;;;;;;;5058906;28;20223;-73
2023/06/02 12:23:50;;;;;;;4.30;2.83;;;;;;;;;;5053668;28;20206;-73
2023/06/02 12:26:17;;;;;;;4.75;2.95;;;;;;;;;;5059810;28;20203;-73
2023/06/02 12:28:44;;;;;;;4.50;2.60;;;;;;;;;;5057431;28;20219;-75
2023/06/02 12:31:12;;;;;;;5.05;3.10;;;;;;;;;;5056099;28;20191;-75
2023/06/02 12:33:42;;;;;;;5.38;2.80;;;;;;;;;;5051719;28;20210;-74
2023/06/02 12:36:10;;;;;;;6.10;2.72;;;;;;;;;;5051907;28;20227;-73
2023/06/02 12:38:39;;;;;;;7.13;3.15;;;;;;;;;;5052979;28;20203;-72
2023/06/02 12:41:10;;;;;;;3.55;2.53;;;;;;;;;;5051361;28;20315;-74
2023/06/02 12:43:38;;;;;;;7.07;3.30;;;;;;;;;;5054798;28;20195;-74
2023/06/02 12:46:05;;;;;;;10.95;3.03;;;;;;;;;;5052779;28;20200;-73
2023/06/02 12:48:32;;;;;;;4.85;3.05;;;;;;;;;;5054164;28;20199;-73
2023/06/02 12:50:59;;;;;;;20.98;3.83;;;;;;;;;;5057938;28;20210;-75
2023/06/02 12:53:26;;;;;;;6.55;3.15;;;;;;;;;;5052530;28;20210;-72
2023/06/02 12:55:55;;;;;;;4.80;3.22;;;;;;;;;;5052507;28;20259;-71
2023/06/02 12:58:22;;;;;;;4.05;2.90;;;;;;;;;;5052586;28;20199;-73
2023/06/02 13:00:50;;;;;;;4.55;3.15;;;;;;;;;;5053366;28;20200;-76
2023/06/02 13:03:17;;;;;;;6.05;2.95;;;;;;;;;;5052269;28;20337;-74
2023/06/02 13:05:56;;;;;;;4.82;3.03;;;;;;;;;;5055654;28;20191;-73
2023/06/02 13:08:23;;;;;;;5.28;2.85;;;;;;;;;;5040986;28;20208;-73
2023/06/02 13:10:51;;;;;;;3.65;2.95;;;;;;;;;;5053516;28;20207;-73
2023/06/02 13:13:19;;;;;;;6.97;3.40;;;;;;;;;;5039828;28;20192;-72
2023/06/02 13:15:47;;;;;;;5.93;3.33;;;;;;;;;;5059912;28;20253;-73
2023/06/02 13:18:16;;;;;;;4.35;3.40;;;;;;;;;;5049750;28;20203;-74
2023/06/02 13:20:43;;;;;;;7.22;3.35;;;;;;;;;;5053509;28;20200;-74
2023/06/02 13:23:11;;;;;;;6.53;3.30;;;;;;;;;;5054249;28;20234;-70
2023/06/02 13:25:38;;;;;;;5.97;3.42;;;;;;;;;;5054823;28;20199;-71
2023/06/02 13:28:05;;;;;;;6.15;3.17;;;;;;;;;;5054217;28;20260;-69
2023/06/02 13:30:34;;;;;;;7.47;3.60;;;;;;;;;;5059580;28;20290;-70
2023/06/02 13:33:02;;;;;;;6.15;3.40;;;;;;;;;;5050201;28;20273;-71
2023/06/02 13:35:30;;;;;;;7.15;3.20;;;;;;;;;;5046195;28;20195;-70
2023/06/02 13:37:57;;;;;;;6.75;3.42;;;;;;;;;;5051426;28;20210;-70
2023/06/02 13:40:25;;;;;;;7.22;3.78;;;;;;;;;;5052922;28;20290;-71
2023/06/02 13:42:52;;;;;;;6.82;3.03;;;;;;;;;;5043537;28;20230;-70
2023/06/02 13:45:19;;;;;;;7.50;3.13;;;;;;;;;;5052239;28;20208;-70
2023/06/02 13:47:48;;;;;;;5.47;3.40;;;;;;;;;;5053463;28;20199;-70
2023/06/02 13:50:15;;;;;;;4.07;3.10;;;;;;;;;;5050268;28;20212;-72
2023/06/02 13:52:42;;;;;;;10.00;3.28;;;;;;;;;;5053682;28;20324;-71
2023/06/02 13:55:10;;;;;;;5.22;3.38;;;;;;;;;;5056869;28;20203;-70
2023/06/02 13:57:37;;;;;;;5.65;3.33;;;;;;;;;;5052017;28;20203;-70
2023/06/02 14:00:05;;;;;;;4.88;2.97;;;;;;;;;;5056866;28;20207;-70
2023/06/02 14:02:32;;;;;;;4.30;2.92;;;;;;;;;;5050148;28;20226;-70
2023/06/02 14:05:00;;;;;;;6.13;2.83;;;;;;;;;;5058032;28;20210;-70
2023/06/02 14:07:28;;;;;;;4.55;2.80;;;;;;;;;;5054806;28;20205;-74
2023/06/02 14:09:55;;;;;;;6.15;2.88;;;;;;;;;;5049395;28;20250;-71
2023/06/02 14:12:22;;;;;;;6.97;2.55;;;;;;;;;;5047854;28;20234;-72
2023/06/02 14:14:49;;;;;;;4.78;2.88;;;;;;;;;;5049304;28;20199;-70
2023/06/02 14:17:16;;;;;;;5.13;2.80;;;;;;;;;;5054794;28;20203;-70
2023/06/02 14:19:43;;;;;;;6.78;2.65;;;;;;;;;;5056777;28;20211;-70
2023/06/02 14:22:12;;;;;;;6.30;2.67;;;;;;;;;;5051245;28;20215;-70
2023/06/02 14:24:39;;;;;;;5.28;2.72;;;;;;;;;;5052236;28;20253;-71
2023/06/02 14:27:07;;;;;;;5.22;2.50;;;;;;;;;;5054867;28;20205;-71
2023/06/02 14:29:34;;;;;;;4.95;2.63;;;;;;;;;;5053981;28;20206;-71
2023/06/02 14:32:01;;;;;;;6.72;2.80;;;;;;;;;;5053164;28;20203;-71
2023/06/02 14:34:29;;;;;;;6.40;3.00;;;;;;;;;;5049468;28;20203;-71
2023/06/02 14:36:56;;;;;;;4.43;2.63;;;;;;;;;;5058022;28;20211;-70